createdAt,value
2018-06-20T00:02:17.536Z,16.74
2018-06-20T00:04:44.707Z,16.79
2018-06-20T00:07:11.933Z,16.79
2018-06-20T00:09:39.084Z,16.68
2018-06-20T00:12:06.216Z,16.52
2018-06-20T00:14:33.382Z,16.63
2018-06-20T00:17:00.512Z,16.72
2018-06-20T00:19:27.656Z,16.67
2018-06-20T00:21:54.785Z,16.59
2018-06-20T00:24:21.923Z,16.70
2018-06-20T00:26:49.157Z,16.42
2018-06-20T00:29:16.297Z,16.28
2018-06-20T00:31:43.493Z,16.17
2018-06-20T00:34:10.599Z,16.36
2018-06-20T00:36:37.779Z,16.40
2018-06-20T00:39:06.969Z,16.41
2018-06-20T00:41:34.248Z,16.21
2018-06-20T00:44:01.372Z,16.08
2018-06-20T00:46:28.502Z,16.12
2018-06-20T00:48:55.667Z,16.09
2018-06-20T00:51:22.805Z,15.84
2018-06-20T00:53:49.948Z,15.92
2018-06-20T00:56:23.703Z,16.06
2018-06-20T00:58:50.918Z,16.12
2018-06-20T01:01:18.301Z,16.11
2018-06-20T01:03:45.490Z,16.07
2018-06-20T01:06:12.952Z,16.07
2018-06-20T01:08:40.184Z,16.12
2018-06-20T01:11:07.328Z,16.04
2018-06-20T01:13:34.467Z,16.11
2018-06-20T01:16:01.576Z,16.34
2018-06-20T01:18:28.756Z,16.28
2018-06-20T01:20:55.845Z,16.10
2018-06-20T01:23:23.019Z,15.90
2018-06-20T01:25:50.860Z,15.90
2018-06-20T01:28:19.857Z,16.05
2018-06-20T01:30:47.379Z,15.99
2018-06-20T01:33:14.548Z,15.92
2018-06-20T01:35:41.800Z,15.84
2018-06-20T01:38:08.956Z,15.86
2018-06-20T01:40:36.057Z,15.92
2018-06-20T01:43:03.232Z,15.99
2018-06-20T01:45:30.392Z,15.91
2018-06-20T01:47:57.500Z,15.98
2018-06-20T01:50:25.558Z,15.93
2018-06-20T01:52:52.677Z,15.37
2018-06-20T01:55:19.811Z,15.31
2018-06-20T01:57:46.927Z,15.09
2018-06-20T02:00:14.067Z,15.10
2018-06-20T02:02:41.217Z,15.36
2018-06-20T02:05:08.364Z,15.46
2018-06-20T02:07:35.567Z,15.52
2018-06-20T02:10:03.480Z,15.37
2018-06-20T02:12:30.632Z,15.49
2018-06-20T02:14:57.827Z,15.65
2018-06-20T02:17:24.969Z,15.65
2018-06-20T02:19:52.101Z,15.75
2018-06-20T02:22:19.282Z,15.63
2018-06-20T02:24:46.404Z,15.40
2018-06-20T02:27:13.518Z,15.42
2018-06-20T02:29:40.663Z,15.57
2018-06-20T02:32:07.784Z,15.70
2018-06-20T02:34:34.917Z,15.64
2018-06-20T02:37:02.048Z,15.43
2018-06-20T02:39:29.197Z,15.51
2018-06-20T02:41:56.331Z,15.38
2018-06-20T02:44:23.500Z,15.37
2018-06-20T02:46:50.622Z,15.41
2018-06-20T02:49:17.764Z,15.54
2018-06-20T02:51:44.861Z,15.82
2018-06-20T02:54:12.041Z,15.82
2018-06-20T02:56:39.140Z,15.85
2018-06-20T02:59:06.321Z,15.90
2018-06-20T03:01:33.452Z,15.87
2018-06-20T03:04:00.565Z,15.72
2018-06-20T03:06:27.713Z,15.74
2018-06-20T03:09:00.905Z,15.59
2018-06-20T03:11:28.060Z,15.73
2018-06-20T03:13:55.205Z,15.51
2018-06-20T03:16:22.364Z,15.57
2018-06-20T03:18:49.530Z,15.63
2018-06-20T03:21:16.709Z,15.80
2018-06-20T03:23:43.882Z,15.59
2018-06-20T03:26:10.981Z,15.50
2018-06-20T03:28:38.093Z,15.74
2018-06-20T03:31:05.297Z,15.74
2018-06-20T03:33:32.429Z,15.80
2018-06-20T03:35:59.563Z,15.80
2018-06-20T03:38:26.692Z,15.78
2018-06-20T03:40:53.808Z,15.65
2018-06-20T03:43:20.952Z,15.59
2018-06-20T03:45:48.087Z,15.40
2018-06-20T03:48:15.216Z,15.42
2018-06-20T03:50:42.380Z,15.46
2018-06-20T03:53:09.493Z,15.62
2018-06-20T03:55:36.621Z,15.68
2018-06-20T03:58:03.760Z,15.60
2018-06-20T04:00:30.944Z,15.62
2018-06-20T04:02:58.120Z,15.83
2018-06-20T04:05:28.397Z,15.88
2018-06-20T04:07:55.537Z,16.07
2018-06-20T04:10:22.689Z,16.02
2018-06-20T04:12:49.869Z,16.01
2018-06-20T04:15:16.969Z,16.01
2018-06-20T04:17:44.128Z,16.03
2018-06-20T04:20:11.249Z,16.06
2018-06-20T04:22:38.420Z,16.10
2018-06-20T04:25:05.581Z,16.22
2018-06-20T04:27:32.751Z,16.36
2018-06-20T04:29:59.869Z,16.29
2018-06-20T04:32:27.004Z,16.04
2018-06-20T04:34:54.113Z,15.91
2018-06-20T04:37:21.252Z,16.10
2018-06-20T04:39:48.392Z,16.12
2018-06-20T04:42:15.531Z,16.19
2018-06-20T04:44:42.744Z,16.20
2018-06-20T04:47:09.880Z,16.23
2018-06-20T04:49:37.012Z,16.35
2018-06-20T04:52:04.157Z,16.48
2018-06-20T04:54:31.340Z,16.46
2018-06-20T04:56:58.490Z,16.45
2018-06-20T04:59:25.631Z,16.56
2018-06-20T05:01:52.782Z,16.65
2018-06-20T05:04:20.034Z,16.71
2018-06-20T05:06:47.181Z,16.84
2018-06-20T05:09:17.321Z,17.01
2018-06-20T05:11:44.480Z,17.13
2018-06-20T05:14:11.623Z,17.18
2018-06-20T05:16:38.794Z,17.14
2018-06-20T05:19:05.893Z,17.21
2018-06-20T05:21:33.002Z,17.19
2018-06-20T05:24:00.122Z,17.30
2018-06-20T05:26:27.249Z,17.52
2018-06-20T05:28:54.376Z,17.54
2018-06-20T05:31:21.523Z,17.72
2018-06-20T05:33:48.679Z,17.96
2018-06-20T05:36:15.837Z,18.11
2018-06-20T05:38:43.028Z,18.14
2018-06-20T05:41:10.161Z,18.16
2018-06-20T05:43:37.312Z,18.33
2018-06-20T05:46:04.488Z,18.61
2018-06-20T05:48:31.627Z,19.00
2018-06-20T05:50:58.769Z,19.08
2018-06-20T05:53:25.977Z,19.10
2018-06-20T05:55:53.145Z,19.32
2018-06-20T05:58:20.237Z,19.32
2018-06-20T06:00:47.401Z,19.11
2018-06-20T06:03:14.599Z,18.94
2018-06-20T06:05:42.345Z,19.38
2018-06-20T06:08:11.721Z,19.61
2018-06-20T06:10:39.761Z,20.21
2018-06-20T06:13:06.919Z,20.80
2018-06-20T06:15:34.052Z,20.69
2018-06-20T06:18:01.240Z,20.87
2018-06-20T06:20:28.396Z,21.17
2018-06-20T06:22:55.487Z,21.47
2018-06-20T06:25:22.636Z,21.89
2018-06-20T06:27:49.799Z,21.98
2018-06-20T06:30:16.962Z,22.02
2018-06-20T06:32:44.149Z,21.65
2018-06-20T06:35:11.307Z,21.65
2018-06-20T06:37:38.481Z,21.92
2018-06-20T06:40:05.640Z,22.05
2018-06-20T06:42:32.812Z,22.20
2018-06-20T06:44:59.961Z,22.23
2018-06-20T06:47:27.117Z,22.22
2018-06-20T06:49:54.367Z,22.41
2018-06-20T06:52:21.548Z,22.44
2018-06-20T06:54:48.656Z,22.70
2018-06-20T06:57:16.114Z,23.02
2018-06-20T06:59:43.284Z,22.79
2018-06-20T07:02:10.396Z,23.08
2018-06-20T07:04:37.608Z,23.40
2018-06-20T07:07:04.788Z,23.80
2018-06-20T07:09:31.964Z,24.05
2018-06-20T07:11:59.136Z,24.27
2018-06-20T07:14:26.264Z,24.01
2018-06-20T07:16:54.039Z,23.57
2018-06-20T07:19:21.194Z,23.69
2018-06-20T07:21:48.416Z,24.09
2018-06-20T07:24:15.606Z,24.61
2018-06-20T07:26:42.756Z,24.75
2018-06-20T07:29:09.937Z,24.02
2018-06-20T07:31:37.112Z,24.44
2018-06-20T07:34:04.414Z,24.84
2018-06-20T07:36:31.630Z,25.29
2018-06-20T07:38:58.774Z,25.18
2018-06-20T07:41:25.958Z,24.90
2018-06-20T07:43:53.145Z,25.29
2018-06-20T07:46:20.341Z,25.70
2018-06-20T07:48:47.480Z,25.29
2018-06-20T07:51:14.605Z,26.01
2018-06-20T07:53:41.731Z,25.96
2018-06-20T07:56:08.874Z,25.97
2018-06-20T07:58:57.755Z,25.87
2018-06-20T08:01:42.119Z,26.11
2018-06-20T08:04:14.953Z,26.69
2018-06-20T08:06:47.843Z,26.61
2018-06-20T08:09:20.698Z,26.78
2018-06-20T08:11:53.683Z,27.21
2018-06-20T08:14:26.638Z,27.47
2018-06-20T08:16:59.660Z,27.64
2018-06-20T08:19:32.333Z,27.41
2018-06-20T08:21:59.486Z,26.82
2018-06-20T08:24:26.920Z,27.45
2018-06-20T08:26:54.098Z,26.66
2018-06-20T08:29:21.249Z,27.29
2018-06-20T08:31:48.381Z,26.89
2018-06-20T08:34:16.141Z,27.54
2018-06-20T08:36:43.252Z,27.64
2018-06-20T08:39:10.533Z,27.22
2018-06-20T08:41:37.658Z,27.73
2018-06-20T08:44:04.778Z,27.69
2018-06-20T08:46:32.055Z,27.45
2018-06-20T08:48:59.229Z,27.65
2018-06-20T08:51:26.417Z,27.55
2018-06-20T08:53:53.552Z,28.09
2018-06-20T08:56:20.669Z,27.16
2018-06-20T08:58:47.843Z,27.02
2018-06-20T09:01:15.002Z,27.51
2018-06-20T09:03:43.405Z,27.15
2018-06-20T09:06:16.161Z,26.61
2018-06-20T09:08:49.149Z,26.72
2018-06-20T09:11:22.064Z,26.36
2018-06-20T09:13:55.055Z,26.57
2018-06-20T09:16:27.976Z,27.14
2018-06-20T09:19:00.724Z,27.86
2018-06-20T09:21:27.907Z,28.43
2018-06-20T09:23:55.025Z,28.81
2018-06-20T09:26:22.233Z,28.71
2018-06-20T09:28:49.431Z,28.60
2018-06-20T09:31:16.595Z,29.05
2018-06-20T09:33:43.774Z,29.17
2018-06-20T09:36:10.940Z,28.16
2018-06-20T09:38:38.098Z,27.98
2018-06-20T09:41:05.249Z,28.19
2018-06-20T09:43:32.403Z,28.50
2018-06-20T09:45:59.616Z,28.50
2018-06-20T09:48:26.818Z,28.41
2018-06-20T09:50:57.114Z,28.43
2018-06-20T09:53:24.480Z,28.60
2018-06-20T09:55:51.662Z,28.12
2018-06-20T09:58:18.824Z,27.90
2018-06-20T10:00:51.716Z,27.56
2018-06-20T10:03:24.730Z,26.60
2018-06-20T10:05:57.474Z,27.63
2018-06-20T10:08:30.385Z,27.67
2018-06-20T10:11:03.111Z,27.68
2018-06-20T10:13:34.825Z,28.13
2018-06-20T10:16:02.020Z,28.51
2018-06-20T10:18:29.142Z,27.70
2018-06-20T10:20:56.348Z,28.22
2018-06-20T10:23:23.530Z,28.15
2018-06-20T10:25:50.683Z,27.42
2018-06-20T10:28:17.856Z,27.79
2018-06-20T10:30:44.971Z,26.96
2018-06-20T10:33:12.092Z,27.20
2018-06-20T10:35:39.276Z,26.89
2018-06-20T10:38:06.457Z,27.20
2018-06-20T10:40:33.614Z,28.32
2018-06-20T10:43:00.771Z,28.68
2018-06-20T10:46:36.477Z,28.93
2018-06-20T10:49:03.652Z,28.85
2018-06-20T10:51:30.784Z,28.65
2018-06-20T10:54:01.966Z,28.15
2018-06-20T10:56:34.780Z,27.71
2018-06-20T10:59:07.591Z,27.99
2018-06-20T11:01:40.398Z,28.35
2018-06-20T11:05:11.044Z,28.38
2018-06-20T11:07:44.028Z,29.01
2018-06-20T11:10:16.892Z,29.39
2018-06-20T11:12:49.784Z,28.96
2018-06-20T11:15:17.035Z,29.06
2018-06-20T11:17:44.167Z,29.32
2018-06-20T11:20:16.912Z,29.55
2018-06-20T11:22:44.500Z,30.07
2018-06-20T11:25:11.654Z,30.23
2018-06-20T11:27:38.807Z,29.87
2018-06-20T11:30:06.019Z,30.29
2018-06-20T11:32:33.117Z,30.80
2018-06-20T11:35:00.257Z,30.81
2018-06-20T11:37:27.448Z,30.50
2018-06-20T11:39:54.634Z,30.06
2018-06-20T11:42:21.797Z,30.48
2018-06-20T11:44:48.988Z,30.48
2018-06-20T11:47:21.896Z,30.77
2018-06-20T11:49:49.043Z,31.06
2018-06-20T11:52:21.985Z,30.17
2018-06-20T11:54:49.176Z,30.44
2018-06-20T11:57:16.321Z,31.33
2018-06-20T11:59:49.213Z,30.94
2018-06-20T12:02:21.918Z,30.49
2018-06-20T12:04:54.810Z,31.29
2018-06-20T12:07:27.671Z,31.43
2018-06-20T12:10:00.588Z,31.53
2018-06-20T12:12:33.450Z,30.78
2018-06-20T12:15:06.289Z,30.04
2018-06-20T12:17:39.090Z,30.74
2018-06-20T12:20:11.837Z,30.73
2018-06-20T12:22:44.617Z,31.09
2018-06-20T12:25:17.597Z,31.78
2018-06-20T12:27:50.350Z,31.86
2018-06-20T12:30:23.308Z,31.23
2018-06-20T12:32:56.189Z,31.50
2018-06-20T12:35:28.901Z,31.33
2018-06-20T12:38:01.851Z,31.55
2018-06-20T12:40:34.528Z,32.18
2018-06-20T12:43:07.397Z,31.85
2018-06-20T12:45:34.648Z,31.25
2018-06-20T12:48:01.792Z,31.25
2018-06-20T12:50:28.967Z,31.43
2018-06-20T12:52:56.771Z,31.46
2018-06-20T12:55:24.937Z,32.05
2018-06-20T12:57:52.976Z,31.61
2018-06-20T13:00:20.159Z,31.09
2018-06-20T13:02:47.344Z,31.70
2018-06-20T13:05:14.769Z,31.60
2018-06-20T13:07:41.949Z,32.15
2018-06-20T13:10:09.129Z,31.69
2018-06-20T13:12:36.416Z,31.40
2018-06-20T13:15:03.745Z,31.03
2018-06-20T13:17:31.567Z,31.63
2018-06-20T13:19:58.788Z,30.82
2018-06-20T13:22:26.040Z,30.54
2018-06-20T13:24:53.421Z,31.12
2018-06-20T13:27:26.227Z,30.69
2018-06-20T13:29:58.993Z,30.76
2018-06-20T13:32:32.008Z,30.41
2018-06-20T13:35:04.694Z,30.82
2018-06-20T13:37:37.620Z,31.21
2018-06-20T13:40:10.689Z,31.82
2018-06-20T13:42:43.652Z,30.92
2018-06-20T13:45:16.537Z,31.01
2018-06-20T13:47:49.420Z,30.73
2018-06-20T13:50:16.550Z,30.80
2018-06-20T13:52:43.712Z,30.58
2018-06-20T13:55:10.860Z,30.52
2018-06-20T13:57:38.082Z,30.99
2018-06-20T14:00:05.477Z,31.55
2018-06-20T14:02:32.654Z,31.95
2018-06-20T14:05:00.288Z,32.03
2018-06-20T14:07:27.423Z,32.28
2018-06-20T14:09:54.592Z,32.23
2018-06-20T14:12:21.751Z,32.50
2018-06-20T14:14:48.944Z,32.47
2018-06-20T14:17:16.134Z,32.17
2018-06-20T14:19:48.908Z,31.44
2018-06-20T14:22:16.045Z,31.05
2018-06-20T14:24:43.243Z,31.06
2018-06-20T14:27:10.441Z,30.81
2018-06-20T14:29:41.989Z,31.62
2018-06-20T14:32:14.991Z,32.02
2018-06-20T14:34:47.771Z,32.39
2018-06-20T14:37:20.648Z,32.43
2018-06-20T14:39:53.624Z,31.41
2018-06-20T14:42:26.521Z,32.04
2018-06-20T14:44:59.452Z,32.45
2018-06-20T14:47:26.596Z,32.49
2018-06-20T14:49:53.787Z,32.66
2018-06-20T14:52:20.953Z,32.61
2018-06-20T14:54:48.073Z,31.49
2018-06-20T14:57:15.312Z,31.01
2018-06-20T14:59:42.492Z,30.47
2018-06-20T15:02:09.633Z,30.25
2018-06-20T15:04:36.772Z,31.27
2018-06-20T15:07:04.097Z,30.90
2018-06-20T15:09:31.263Z,31.48
2018-06-20T15:11:58.408Z,31.73
2018-06-20T15:14:25.713Z,32.19
2018-06-20T15:16:58.554Z,32.29
2018-06-20T15:19:25.694Z,31.55
2018-06-20T15:21:52.867Z,32.22
2018-06-20T15:24:20.139Z,32.24
2018-06-20T15:26:52.840Z,31.94
2018-06-20T15:29:25.603Z,32.13
2018-06-20T15:31:58.628Z,32.11
2018-06-20T15:34:31.609Z,31.92
2018-06-20T15:37:04.370Z,31.69
2018-06-20T15:39:31.561Z,31.73
2018-06-20T15:41:58.757Z,31.81
2018-06-20T15:44:25.948Z,31.32
2018-06-20T15:46:53.193Z,31.27
2018-06-20T15:49:20.404Z,31.21
2018-06-20T15:51:47.600Z,31.29
2018-06-20T15:54:14.766Z,30.89
2018-06-20T15:56:41.907Z,31.09
2018-06-20T15:59:09.135Z,31.15
2018-06-20T16:01:36.369Z,30.82
2018-06-20T16:04:03.639Z,30.84
2018-06-20T16:06:30.793Z,30.79
2018-06-20T16:09:03.755Z,30.72
2018-06-20T16:11:30.953Z,30.71
2018-06-20T16:13:58.195Z,30.91
2018-06-20T16:16:25.407Z,30.65
2018-06-20T16:18:58.390Z,30.92
2018-06-20T16:22:34.121Z,30.81
2018-06-20T16:25:06.957Z,30.47
2018-06-20T16:27:39.813Z,30.58
2018-06-20T16:30:12.493Z,30.57
2018-06-20T16:32:39.609Z,30.44
2018-06-20T16:35:06.897Z,29.73
2018-06-20T16:37:34.107Z,30.02
2018-06-20T16:40:01.502Z,30.04
2018-06-20T16:42:28.670Z,30.20
2018-06-20T16:44:55.938Z,30.08
2018-06-20T16:47:23.131Z,29.92
2018-06-20T16:49:50.310Z,29.94
2018-06-20T16:52:17.465Z,29.61
2018-06-20T16:54:44.689Z,29.74
2018-06-20T16:57:11.855Z,29.79
2018-06-20T16:59:38.971Z,29.69
2018-06-20T17:02:11.870Z,29.80
2018-06-20T17:04:39.198Z,29.58
2018-06-20T17:07:06.447Z,29.68
2018-06-20T17:09:33.636Z,29.76
2018-06-20T17:12:06.636Z,29.77
2018-06-20T17:14:39.474Z,29.80
2018-06-20T17:17:12.452Z,29.81
2018-06-20T17:19:45.512Z,29.84
2018-06-20T17:22:18.467Z,29.60
2018-06-20T17:24:51.466Z,29.51
2018-06-20T17:27:18.827Z,29.48
2018-06-20T17:29:46.007Z,29.45
2018-06-20T17:32:13.521Z,29.37
2018-06-20T17:34:40.706Z,29.42
2018-06-20T17:37:07.885Z,29.37
2018-06-20T17:39:35.086Z,29.16
2018-06-20T17:42:02.246Z,29.01
2018-06-20T17:44:29.433Z,29.20
2018-06-20T17:46:56.559Z,29.05
2018-06-20T17:49:23.771Z,29.17
2018-06-20T17:51:50.943Z,29.29
2018-06-20T17:54:18.083Z,29.21
2018-06-20T17:56:45.233Z,29.12
2018-06-20T17:59:12.394Z,29.08
2018-06-20T18:01:39.566Z,29.00
2018-06-20T18:04:06.696Z,28.85
2018-06-20T18:06:39.671Z,28.82
2018-06-20T18:09:12.644Z,28.83
2018-06-20T18:11:45.591Z,28.79
2018-06-20T18:14:18.616Z,28.67
2018-06-20T18:16:51.555Z,28.61
2018-06-20T18:19:18.700Z,28.47
2018-06-20T18:21:45.871Z,28.51
2018-06-20T18:24:13.062Z,28.44
2018-06-20T18:26:40.259Z,28.54
2018-06-20T18:29:07.425Z,28.48
2018-06-20T18:31:34.712Z,28.45
2018-06-20T18:34:01.862Z,28.42
2018-06-20T18:36:29.031Z,28.26
2018-06-20T18:38:56.324Z,28.29
2018-06-20T18:41:23.537Z,28.13
2018-06-20T18:43:50.928Z,28.08
2018-06-20T18:46:18.076Z,28.15
2018-06-20T18:48:45.315Z,28.06
2018-06-20T18:51:12.528Z,27.73
2018-06-20T18:53:39.656Z,27.67
2018-06-20T18:56:06.819Z,27.53
2018-06-20T18:58:39.948Z,27.43
2018-06-20T19:01:12.909Z,27.23
2018-06-20T19:03:45.928Z,27.08
2018-06-20T19:06:18.606Z,26.95
2018-06-20T19:08:53.170Z,26.67
2018-06-20T19:11:20.241Z,26.61
2018-06-20T19:13:47.412Z,26.33
2018-06-20T19:16:14.641Z,26.23
2018-06-20T19:18:41.876Z,26.14
2018-06-20T19:21:09.067Z,25.90
2018-06-20T19:23:36.240Z,25.64
2018-06-20T19:26:03.428Z,25.51
2018-06-20T19:28:30.635Z,25.35
2018-06-20T19:30:57.833Z,25.28
2018-06-20T19:33:25.016Z,25.08
2018-06-20T19:35:52.218Z,25.08
2018-06-20T19:38:19.392Z,25.12
2018-06-20T19:40:46.568Z,25.08
2018-06-20T19:43:13.779Z,24.97
2018-06-20T19:45:40.918Z,25.04
2018-06-20T19:48:08.117Z,24.90
2018-06-20T19:50:35.346Z,24.95
2018-06-20T19:53:02.569Z,24.84
2018-06-20T19:55:29.837Z,24.80
2018-06-20T19:57:57.040Z,24.54
2018-06-20T20:00:24.286Z,24.43
2018-06-20T20:02:51.497Z,24.15
2018-06-20T20:05:19.595Z,24.24
2018-06-20T20:07:46.776Z,24.14
2018-06-20T20:10:13.954Z,24.17
2018-06-20T20:12:41.212Z,24.14
2018-06-20T20:15:08.723Z,23.94
2018-06-20T20:17:36.006Z,23.94
2018-06-20T20:20:03.608Z,23.92
2018-06-20T20:22:30.781Z,24.22
2018-06-20T20:24:57.932Z,23.99
2018-06-20T20:27:25.050Z,23.93
2018-06-20T20:29:52.200Z,23.93
2018-06-20T20:32:19.674Z,23.73
2018-06-20T20:34:46.817Z,23.54
2018-06-20T20:37:13.979Z,23.30
2018-06-20T20:39:41.187Z,23.32
2018-06-20T20:42:08.359Z,23.28
2018-06-20T20:44:35.503Z,23.27
2018-06-20T20:47:02.697Z,22.82
2018-06-20T20:49:29.852Z,22.68
2018-06-20T20:51:57.021Z,22.38
2018-06-20T20:54:24.203Z,22.47
2018-06-20T20:56:51.377Z,22.62
2018-06-20T20:59:18.572Z,22.40
2018-06-20T21:01:45.737Z,22.23
2018-06-20T21:04:12.904Z,22.24
2018-06-20T21:06:40.010Z,22.18
2018-06-20T21:09:08.703Z,22.14
2018-06-20T21:11:35.878Z,22.29
2018-06-20T21:14:03.046Z,22.33
2018-06-20T21:16:30.241Z,22.34
2018-06-20T21:18:58.041Z,22.36
2018-06-20T21:21:25.159Z,22.08
2018-06-20T21:23:52.255Z,21.72
2018-06-20T21:26:19.393Z,21.58
2018-06-20T21:28:46.536Z,21.70
2018-06-20T21:31:13.688Z,21.88
2018-06-20T21:33:40.832Z,21.95
2018-06-20T21:36:08.060Z,21.62
2018-06-20T21:38:35.253Z,21.43
2018-06-20T21:41:02.384Z,21.45
2018-06-20T21:43:29.601Z,21.25
2018-06-20T21:45:56.732Z,21.35
2018-06-20T21:48:23.868Z,21.26
2018-06-20T21:50:51.037Z,21.13
2018-06-20T21:53:18.227Z,21.34
2018-06-20T21:55:45.320Z,21.28
2018-06-20T21:58:12.448Z,21.29
2018-06-20T22:00:39.616Z,21.39
2018-06-20T22:03:06.919Z,21.51
2018-06-20T22:05:34.088Z,21.41
2018-06-20T22:08:01.186Z,21.12
2018-06-20T22:10:28.352Z,21.27
2018-06-20T22:12:55.484Z,21.36
2018-06-20T22:15:22.648Z,21.30
2018-06-20T22:17:49.803Z,21.24
2018-06-20T22:20:16.927Z,20.90
2018-06-20T22:22:44.092Z,20.74
2018-06-20T22:25:11.289Z,20.47
2018-06-20T22:27:38.404Z,20.59
2018-06-20T22:30:05.552Z,20.83
2018-06-20T22:32:32.720Z,20.94
2018-06-20T22:34:59.879Z,20.95
2018-06-20T22:37:27.012Z,21.02
2018-06-20T22:39:54.154Z,21.09
2018-06-20T22:42:21.331Z,20.89
2018-06-20T22:44:48.510Z,20.71
2018-06-20T22:47:15.667Z,20.07
2018-06-20T22:49:42.776Z,20.32
2018-06-20T22:52:09.927Z,20.40
2018-06-20T22:54:37.089Z,20.44
2018-06-20T22:57:04.593Z,20.25
2018-06-20T22:59:31.781Z,20.36
2018-06-20T23:01:58.983Z,20.25
2018-06-20T23:04:26.159Z,20.29
2018-06-20T23:06:53.327Z,20.24
2018-06-20T23:09:20.516Z,19.92
2018-06-20T23:11:48.839Z,19.83
2018-06-20T23:14:15.917Z,20.04
2018-06-20T23:16:43.144Z,19.92
2018-06-20T23:19:10.913Z,19.89
2018-06-20T23:21:38.171Z,19.93
2018-06-20T23:24:05.319Z,19.99
2018-06-20T23:26:32.477Z,19.74
2018-06-20T23:28:59.829Z,19.76
2018-06-20T23:31:26.969Z,19.90
2018-06-20T23:33:54.152Z,19.72
2018-06-20T23:36:21.456Z,19.74
2018-06-20T23:38:48.599Z,19.95
2018-06-20T23:41:15.748Z,19.80
2018-06-20T23:43:43.448Z,19.78
2018-06-20T23:46:11.028Z,19.65
2018-06-20T23:48:38.136Z,19.59
2018-06-20T23:51:05.315Z,19.65
2018-06-20T23:53:32.549Z,19.51
2018-06-20T23:55:59.707Z,19.25
2018-06-20T23:58:26.876Z,19.05
